createdAt,value
2022-10-05T00:01:01.729Z,2.17
2022-10-05T00:03:38.970Z,2.15
2022-10-05T00:06:07.549Z,2.50
2022-10-05T00:08:36.172Z,2.17
2022-10-05T00:11:08.009Z,2.10
2022-10-05T00:13:37.709Z,2.03
2022-10-05T00:16:13.974Z,2.08
2022-10-05T00:18:42.393Z,1.77
2022-10-05T00:21:18.699Z,1.92
2022-10-05T00:23:47.398Z,1.77
2022-10-05T00:26:19.289Z,1.80
2022-10-05T00:28:48.998Z,1.90
2022-10-05T00:31:19.639Z,2.00
2022-10-05T00:33:48.850Z,2.05
2022-10-05T00:36:17.410Z,2.00
2022-10-05T00:38:46.963Z,2.05
2022-10-05T00:41:19.443Z,2.05
2022-10-05T00:44:00.848Z,2.20
2022-10-05T00:46:38.066Z,1.85
2022-10-05T00:49:12.354Z,2.00
2022-10-05T00:51:41.378Z,1.98
2022-10-05T00:54:20.255Z,2.13
2022-10-05T00:57:01.433Z,2.00
2022-10-05T00:59:41.287Z,2.10
2022-10-05T01:02:14.916Z,2.00
2022-10-05T01:04:47.999Z,2.25
2022-10-05T01:07:22.358Z,2.17
2022-10-05T01:09:56.430Z,2.20
2022-10-05T01:12:31.947Z,2.40
2022-10-05T01:15:07.142Z,2.20
2022-10-05T01:17:40.337Z,2.17
2022-10-05T01:20:18.163Z,2.30
2022-10-05T01:23:05.216Z,2.28
2022-10-05T01:25:42.276Z,2.28
2022-10-05T01:28:14.884Z,1.90
2022-10-05T01:30:49.459Z,2.47
2022-10-05T01:33:20.218Z,2.17
2022-10-05T01:35:53.995Z,2.28
2022-10-05T01:38:32.522Z,2.20
2022-10-05T01:41:06.533Z,2.40
2022-10-05T01:43:40.149Z,2.20
2022-10-05T01:46:14.727Z,2.10
2022-10-05T01:51:20.086Z,2.20
2022-10-05T01:53:57.776Z,2.22
2022-10-05T01:56:33.067Z,2.47
2022-10-05T01:59:16.311Z,2.33
2022-10-05T02:01:50.419Z,2.13
2022-10-05T02:04:56.599Z,2.00
2022-10-05T02:07:15.317Z,2.30
2022-10-05T02:09:48.077Z,1.83
2022-10-05T02:12:20.573Z,2.10
2022-10-05T02:14:56.322Z,2.10
2022-10-05T02:17:27.735Z,2.58
2022-10-05T02:20:00.746Z,2.35
2022-10-05T02:22:32.117Z,2.20
2022-10-05T02:25:03.072Z,2.38
2022-10-05T02:27:36.112Z,2.50
2022-10-05T02:30:11.684Z,2.30
2022-10-05T02:32:51.183Z,2.42
2022-10-05T02:35:21.282Z,2.60
2022-10-05T02:37:57.482Z,2.38
2022-10-05T02:40:34.657Z,2.42
2022-10-05T02:43:11.635Z,2.97
2022-10-05T02:45:48.429Z,2.92
2022-10-05T02:48:24.209Z,2.40
2022-10-05T02:50:58.459Z,2.22
2022-10-05T02:53:32.918Z,2.38
2022-10-05T02:56:11.181Z,2.38
2022-10-05T02:58:44.362Z,2.00
2022-10-05T03:01:20.224Z,2.65
2022-10-05T03:03:55.257Z,2.45
2022-10-05T03:06:27.283Z,2.45
2022-10-05T03:09:01.906Z,2.15
2022-10-05T03:11:35.493Z,2.25
2022-10-05T03:14:11.156Z,1.90
2022-10-05T03:16:49.173Z,2.50
2022-10-05T03:19:27.367Z,2.13
2022-10-05T03:22:00.972Z,2.38
2022-10-05T03:24:43.669Z,2.88
2022-10-05T03:27:20.096Z,2.30
2022-10-05T03:29:54.644Z,2.00
2022-10-05T03:32:28.864Z,2.28
2022-10-05T03:35:01.744Z,2.00
2022-10-05T03:37:38.647Z,2.10
2022-10-05T03:40:11.481Z,1.83
2022-10-05T03:42:51.924Z,2.03
2022-10-05T03:45:24.503Z,2.50
2022-10-05T03:48:01.438Z,2.10
2022-10-05T03:50:40.739Z,2.05
2022-10-05T03:53:13.442Z,2.03
2022-10-05T03:55:45.521Z,1.67
2022-10-05T03:58:18.831Z,1.63
2022-10-05T04:00:49.816Z,2.17
2022-10-05T04:03:22.997Z,2.13
2022-10-05T04:05:55.294Z,1.92
2022-10-05T04:08:29.872Z,1.83
2022-10-05T04:10:59.356Z,2.22
2022-10-05T04:13:32.878Z,2.38
2022-10-05T04:16:07.000Z,2.13
2022-10-05T04:18:39.919Z,2.30
2022-10-05T04:21:12.060Z,2.10
2022-10-05T04:23:46.291Z,1.77
2022-10-05T04:26:19.185Z,2.65
2022-10-05T04:28:54.136Z,1.90
2022-10-05T04:31:33.544Z,2.38
2022-10-05T04:34:06.582Z,2.20
2022-10-05T04:36:39.302Z,2.17
2022-10-05T04:39:20.418Z,2.38
2022-10-05T04:42:00.390Z,2.15
2022-10-05T04:44:48.918Z,1.80
2022-10-05T04:47:27.611Z,2.30
2022-10-05T04:50:09.684Z,2.13
2022-10-05T04:52:43.449Z,2.20
2022-10-05T04:55:18.517Z,2.15
2022-10-05T04:57:51.230Z,2.00
2022-10-05T05:00:24.191Z,2.10
2022-10-05T05:03:20.945Z,2.90
2022-10-05T05:06:18.233Z,2.60
2022-10-05T05:09:04.862Z,2.40
2022-10-05T05:11:36.258Z,2.35
2022-10-05T05:14:21.872Z,2.53
2022-10-05T05:16:55.124Z,2.10
2022-10-05T05:19:30.292Z,1.90
2022-10-05T05:22:03.278Z,2.50
2022-10-05T05:24:42.549Z,2.30
2022-10-05T05:27:23.151Z,1.95
2022-10-05T05:30:01.529Z,1.50
2022-10-05T05:32:40.474Z,1.73
2022-10-05T05:36:05.965Z,1.58
2022-10-05T05:38:38.545Z,1.52
2022-10-05T05:41:12.222Z,1.55
2022-10-05T05:43:53.360Z,1.50
2022-10-05T05:46:44.592Z,1.55
2022-10-05T05:49:18.048Z,2.00
2022-10-05T05:51:51.564Z,1.85
2022-10-05T05:54:28.543Z,1.42
2022-10-05T05:57:04.402Z,1.70
2022-10-05T05:59:49.027Z,1.45
2022-10-05T06:02:21.146Z,1.58
2022-10-05T06:04:53.794Z,1.45
2022-10-05T06:07:30.381Z,0.95
2022-10-05T06:10:06.309Z,1.02
2022-10-05T06:12:43.357Z,1.20
2022-10-05T06:15:21.187Z,0.90
2022-10-05T06:17:52.872Z,1.63
2022-10-05T06:20:25.677Z,1.00
2022-10-05T06:22:54.313Z,0.90
2022-10-05T06:25:28.869Z,0.80
2022-10-05T06:30:33.186Z,1.25
2022-10-05T06:33:08.613Z,1.00
2022-10-05T06:35:47.451Z,0.80
2022-10-05T06:38:26.039Z,0.90
2022-10-05T06:41:02.943Z,0.88
2022-10-05T06:43:50.308Z,0.82
2022-10-05T06:47:00.164Z,0.85
2022-10-05T06:50:05.173Z,0.95
2022-10-05T06:52:50.228Z,1.13
2022-10-05T06:55:24.901Z,1.30
2022-10-05T06:58:06.671Z,0.93
2022-10-05T07:00:40.831Z,0.98
2022-10-05T07:03:18.705Z,1.00
2022-10-05T07:05:59.343Z,0.90
2022-10-05T07:08:36.972Z,1.15
2022-10-05T07:11:11.850Z,1.10
2022-10-05T07:14:00.589Z,1.20
2022-10-05T07:16:38.017Z,1.25
2022-10-05T07:19:16.637Z,0.75
2022-10-05T07:21:48.811Z,0.80
2022-10-05T07:24:29.395Z,0.80
2022-10-05T07:27:05.662Z,0.70
2022-10-05T07:29:39.838Z,0.80
2022-10-05T07:32:17.057Z,0.50
2022-10-05T07:34:51.114Z,0.55
2022-10-05T07:37:41.862Z,0.60
2022-10-05T07:40:14.252Z,0.50
2022-10-05T07:42:56.646Z,0.75
2022-10-05T07:45:31.267Z,0.70
2022-10-05T07:48:07.202Z,1.20
2022-10-05T07:50:38.932Z,1.55
2022-10-05T07:53:15.525Z,0.70
2022-10-05T07:55:48.340Z,0.80
2022-10-05T07:58:20.944Z,0.65
2022-10-05T08:01:01.877Z,0.70
2022-10-05T08:03:39.749Z,1.02
2022-10-05T08:06:11.414Z,0.80
2022-10-05T08:08:44.485Z,0.57
2022-10-05T08:11:15.802Z,0.65
2022-10-05T08:13:48.947Z,0.60
2022-10-05T08:16:19.884Z,0.50
2022-10-05T08:18:56.509Z,0.50
2022-10-05T08:21:29.409Z,0.50
2022-10-05T08:24:00.297Z,0.60
2022-10-05T08:26:34.564Z,0.50
2022-10-05T08:29:13.778Z,0.63
2022-10-05T08:31:46.336Z,0.60
2022-10-05T08:34:22.597Z,0.73
2022-10-05T08:36:57.320Z,0.80
2022-10-05T08:42:26.189Z,0.50
2022-10-05T08:45:34.842Z,0.70
2022-10-05T08:48:29.823Z,0.80
2022-10-05T08:51:42.682Z,0.63
2022-10-05T08:54:24.929Z,0.50
2022-10-05T08:57:02.319Z,0.47
2022-10-05T08:59:53.414Z,1.55
2022-10-05T09:02:28.319Z,0.40
2022-10-05T09:05:15.919Z,0.52
2022-10-05T09:07:58.605Z,0.55
2022-10-05T09:10:54.876Z,0.52
2022-10-05T09:13:34.517Z,0.60
2022-10-05T09:16:22.715Z,0.50
2022-10-05T09:19:17.253Z,0.50
2022-10-05T09:21:58.793Z,0.40
2022-10-05T09:24:29.820Z,0.82
2022-10-05T09:27:05.215Z,1.02
2022-10-05T09:30:06.279Z,1.08
2022-10-05T09:33:02.768Z,0.50
2022-10-05T09:35:52.149Z,0.50
2022-10-05T09:38:29.298Z,0.63
2022-10-05T09:41:26.147Z,0.55
2022-10-05T09:44:18.236Z,0.80
2022-10-05T09:47:09.662Z,0.50
2022-10-05T09:49:54.360Z,1.00
2022-10-05T09:52:38.644Z,0.60
2022-10-05T09:55:27.431Z,0.60
2022-10-05T09:58:34.010Z,0.50
2022-10-05T10:01:32.512Z,0.60
2022-10-05T10:04:19.475Z,0.70
2022-10-05T10:07:02.602Z,0.70
2022-10-05T10:09:38.679Z,0.70
2022-10-05T10:12:36.299Z,0.63
2022-10-05T10:15:29.533Z,0.50
2022-10-05T10:18:17.776Z,0.60
2022-10-05T10:21:00.502Z,0.55
2022-10-05T10:24:00.358Z,0.60
2022-10-05T10:26:52.900Z,0.50
2022-10-05T10:29:37.256Z,0.75
2022-10-05T10:32:25.991Z,0.80
2022-10-05T10:35:19.001Z,1.10
2022-10-05T10:38:24.978Z,0.70
2022-10-05T10:41:18.315Z,0.75
2022-10-05T10:44:24.023Z,0.60
2022-10-05T10:49:41.855Z,0.50
2022-10-05T10:52:22.803Z,0.40
2022-10-05T10:55:07.952Z,0.50
2022-10-05T10:57:55.480Z,0.50
2022-10-05T11:00:29.601Z,0.52
2022-10-05T11:03:17.052Z,0.50
2022-10-05T11:06:09.665Z,0.57
2022-10-05T11:09:04.960Z,0.40
2022-10-05T11:14:39.807Z,0.77
2022-10-05T11:17:33.577Z,0.40
2022-10-05T11:20:35.129Z,0.68
2022-10-05T11:23:20.852Z,0.60
2022-10-05T11:25:59.063Z,0.80
2022-10-05T11:28:39.671Z,0.85
2022-10-05T11:31:39.257Z,0.80
2022-10-05T11:34:43.863Z,1.20
2022-10-05T11:37:47.491Z,1.00
2022-10-05T11:40:34.677Z,0.80
2022-10-05T11:43:29.774Z,1.45
2022-10-05T11:46:05.614Z,1.48
2022-10-05T11:48:56.956Z,0.73
2022-10-05T11:51:41.473Z,0.75
2022-10-05T11:55:09.164Z,0.57
2022-10-05T11:57:37.776Z,0.65
2022-10-05T12:00:16.345Z,0.90
2022-10-05T12:03:01.459Z,1.02
2022-10-05T12:05:37.187Z,0.80
2022-10-05T12:08:17.225Z,0.57
2022-10-05T12:10:50.682Z,1.20
2022-10-05T12:13:26.982Z,0.77
2022-10-05T12:15:58.989Z,0.57
2022-10-05T12:18:45.833Z,0.77
2022-10-05T12:21:22.866Z,0.40
2022-10-05T12:23:54.923Z,0.80
2022-10-05T12:26:26.152Z,0.40
2022-10-05T12:29:00.176Z,0.60
2022-10-05T12:31:37.069Z,0.30
2022-10-05T12:34:14.624Z,0.82
2022-10-05T12:37:03.453Z,0.50
2022-10-05T12:39:40.370Z,0.50
2022-10-05T12:42:18.845Z,0.32
2022-10-05T12:45:07.693Z,0.60
2022-10-05T12:47:42.730Z,0.57
2022-10-05T12:50:23.960Z,1.10
2022-10-05T12:53:01.670Z,1.27
2022-10-05T12:55:36.241Z,0.63
2022-10-05T12:58:17.003Z,0.50
2022-10-05T13:00:51.863Z,0.47
2022-10-05T13:03:26.329Z,1.73
2022-10-05T13:06:02.747Z,0.68
2022-10-05T13:08:37.642Z,0.50
2022-10-05T13:13:54.298Z,0.43
2022-10-05T13:16:31.030Z,0.60
2022-10-05T13:19:17.591Z,0.30
2022-10-05T13:22:02.408Z,0.55
2022-10-05T13:24:33.390Z,0.40
2022-10-05T13:27:05.247Z,0.35
2022-10-05T13:29:38.184Z,0.43
2022-10-05T13:32:15.381Z,0.50
2022-10-05T13:34:48.397Z,0.40
2022-10-05T13:37:20.672Z,0.60
2022-10-05T13:39:59.514Z,0.60
2022-10-05T13:42:35.011Z,0.82
2022-10-05T13:45:11.613Z,1.15
2022-10-05T13:47:49.384Z,0.73
2022-10-05T13:50:20.432Z,0.60
2022-10-05T13:52:55.816Z,0.60
2022-10-05T13:55:39.093Z,0.60
2022-10-05T13:58:14.443Z,0.52
2022-10-05T14:00:48.387Z,0.90
2022-10-05T14:03:31.323Z,0.70
2022-10-05T14:06:01.654Z,0.50
2022-10-05T14:08:33.032Z,0.60
2022-10-05T14:11:03.098Z,0.60
2022-10-05T14:13:36.064Z,0.63
2022-10-05T14:16:19.968Z,0.47
2022-10-05T14:19:12.087Z,1.05
2022-10-05T14:21:47.820Z,0.55
2022-10-05T14:24:42.326Z,0.55
2022-10-05T14:27:24.200Z,0.38
2022-10-05T14:30:01.066Z,0.70
2022-10-05T14:32:32.673Z,0.70
2022-10-05T14:35:14.138Z,1.00
2022-10-05T14:37:50.852Z,0.55
2022-10-05T14:40:39.869Z,0.60
2022-10-05T14:43:21.016Z,0.82
2022-10-05T14:45:56.943Z,0.82
2022-10-05T14:48:28.095Z,1.20
2022-10-05T14:50:59.495Z,0.70
2022-10-05T14:53:39.394Z,0.50
2022-10-05T14:56:36.667Z,1.30
2022-10-05T14:59:26.249Z,0.50
2022-10-05T15:01:58.961Z,0.70
2022-10-05T15:04:37.067Z,0.57
2022-10-05T15:07:17.983Z,0.73
2022-10-05T15:10:08.512Z,1.00
2022-10-05T15:12:40.996Z,0.50
2022-10-05T15:15:25.552Z,0.52
2022-10-05T15:17:57.049Z,0.70
2022-10-05T15:20:27.267Z,1.17
2022-10-05T15:23:00.545Z,1.48
2022-10-05T15:25:34.094Z,1.25
2022-10-05T15:28:13.205Z,1.30
2022-10-05T15:30:43.363Z,0.80
2022-10-05T15:33:18.532Z,0.85
2022-10-05T15:36:04.486Z,0.98
2022-10-05T15:38:38.890Z,0.90
2022-10-05T15:41:15.852Z,1.52
2022-10-05T15:44:10.172Z,1.17
2022-10-05T15:46:45.457Z,1.60
2022-10-05T15:49:21.467Z,1.23
2022-10-05T15:51:57.772Z,1.52
2022-10-05T15:55:12.083Z,0.90
2022-10-05T15:57:45.563Z,0.95
2022-10-05T16:00:15.889Z,1.20
2022-10-05T16:02:47.625Z,1.30
2022-10-05T16:05:47.869Z,1.10
2022-10-05T16:08:56.709Z,1.30
2022-10-05T16:11:59.149Z,1.25
2022-10-05T16:14:40.256Z,1.65
2022-10-05T16:17:25.744Z,1.80
2022-10-05T16:20:05.314Z,2.15
2022-10-05T16:22:43.643Z,1.23
2022-10-05T16:25:16.550Z,1.13
2022-10-05T16:27:54.685Z,1.13
2022-10-05T16:30:23.986Z,1.20
2022-10-05T16:32:59.102Z,1.58
2022-10-05T16:35:34.068Z,1.40
2022-10-05T16:38:11.771Z,1.88
2022-10-05T16:40:46.007Z,1.40
2022-10-05T16:43:25.730Z,1.50
2022-10-05T16:46:03.239Z,1.63
2022-10-05T16:48:36.259Z,1.48
2022-10-05T16:51:14.139Z,1.27
2022-10-05T16:53:45.095Z,1.50
2022-10-05T16:56:16.449Z,1.30
2022-10-05T16:58:56.675Z,2.53
2022-10-05T17:01:39.778Z,1.48
2022-10-05T17:04:17.911Z,1.33
2022-10-05T17:07:02.814Z,1.67
2022-10-05T17:09:59.482Z,2.88
2022-10-05T17:12:45.671Z,1.40
2022-10-05T17:15:30.445Z,1.30
2022-10-05T17:18:16.774Z,1.50
2022-10-05T17:23:54.848Z,1.83
2022-10-05T17:26:54.615Z,1.90
2022-10-05T17:29:32.164Z,2.65
2022-10-05T17:32:12.294Z,1.73
2022-10-05T17:34:41.415Z,1.75
2022-10-05T17:37:36.719Z,2.00
2022-10-05T17:40:32.803Z,1.50
2022-10-05T17:43:01.618Z,1.50
2022-10-05T17:46:02.073Z,1.17
2022-10-05T17:49:07.968Z,1.60
2022-10-05T17:52:17.512Z,1.25
2022-10-05T17:55:30.659Z,1.23
2022-10-05T17:58:01.433Z,1.35
2022-10-05T18:01:04.434Z,1.30
2022-10-05T18:03:35.834Z,1.23
2022-10-05T18:06:32.224Z,1.48
2022-10-05T18:09:38.797Z,1.23
2022-10-05T18:12:39.815Z,1.17
2022-10-05T18:15:48.894Z,1.15
2022-10-05T18:18:57.403Z,1.10
2022-10-05T18:21:41.690Z,1.60
2022-10-05T18:24:38.282Z,2.38
2022-10-05T18:27:20.057Z,1.90
2022-10-05T18:30:09.002Z,1.30
2022-10-05T18:32:50.667Z,1.17
2022-10-05T18:35:23.245Z,1.48
2022-10-05T18:38:02.020Z,1.40
2022-10-05T18:40:41.209Z,1.23
2022-10-05T18:43:20.623Z,1.30
2022-10-05T18:46:01.114Z,1.30
2022-10-05T18:48:35.773Z,1.45
2022-10-05T18:51:09.734Z,1.90
2022-10-05T18:53:42.735Z,1.30
2022-10-05T18:56:22.764Z,1.40
2022-10-05T18:59:02.790Z,1.67
2022-10-05T19:01:59.475Z,1.80
2022-10-05T19:04:39.148Z,1.48
2022-10-05T19:07:17.270Z,1.75
2022-10-05T19:10:05.143Z,3.10
2022-10-05T19:12:44.869Z,2.40
2022-10-05T19:15:19.447Z,2.15
2022-10-05T19:17:59.784Z,1.88
2022-10-05T19:20:34.156Z,1.70
2022-10-05T19:23:15.694Z,1.80
2022-10-05T19:25:48.413Z,1.92
2022-10-05T19:28:26.002Z,1.40
2022-10-05T19:31:21.503Z,1.40
2022-10-05T19:33:59.903Z,1.15
2022-10-05T19:36:39.721Z,1.13
2022-10-05T19:39:11.625Z,1.55
2022-10-05T19:41:53.295Z,1.90
2022-10-05T19:44:31.167Z,2.40
2022-10-05T19:47:02.150Z,2.22
2022-10-05T19:49:38.071Z,2.03
2022-10-05T19:52:13.101Z,2.03
2022-10-05T19:54:42.455Z,2.47
2022-10-05T19:57:17.204Z,2.00
2022-10-05T20:02:18.441Z,1.88
2022-10-05T20:04:49.667Z,2.03
2022-10-05T20:07:21.837Z,2.20
2022-10-05T20:09:52.995Z,1.60
2022-10-05T20:12:23.071Z,1.73
2022-10-05T20:18:00.814Z,2.45
2022-10-05T20:20:38.819Z,2.22
2022-10-05T20:23:23.443Z,2.03
2022-10-05T20:26:06.309Z,2.00
2022-10-05T20:28:34.938Z,2.25
2022-10-05T20:31:03.422Z,1.88
2022-10-05T20:33:34.510Z,2.10
2022-10-05T20:36:04.159Z,2.10
2022-10-05T20:38:40.648Z,1.90
2022-10-05T20:41:09.598Z,1.98
2022-10-05T20:43:39.493Z,2.13
2022-10-05T20:46:08.745Z,3.10
2022-10-05T20:48:38.680Z,2.17
2022-10-05T20:51:07.363Z,2.05
2022-10-05T20:53:35.711Z,2.00
2022-10-05T20:56:04.752Z,2.17
2022-10-05T20:58:33.145Z,1.90
2022-10-05T21:01:19.727Z,2.08
2022-10-05T21:03:49.805Z,1.85
2022-10-05T21:06:19.216Z,3.22
2022-10-05T21:08:47.639Z,2.33
2022-10-05T21:11:16.166Z,2.08
2022-10-05T21:13:45.873Z,2.33
2022-10-05T21:16:16.883Z,2.00
2022-10-05T21:18:47.612Z,1.98
2022-10-05T21:21:18.439Z,2.08
2022-10-05T21:23:46.930Z,1.90
2022-10-05T21:26:15.862Z,2.00
2022-10-05T21:28:44.281Z,1.67
2022-10-05T21:31:12.722Z,2.00
2022-10-05T21:33:41.146Z,2.10
2022-10-05T21:36:09.664Z,2.10
2022-10-05T21:38:39.424Z,2.08
2022-10-05T21:41:07.873Z,2.17
2022-10-05T21:43:36.232Z,2.00
2022-10-05T21:46:04.941Z,2.20
2022-10-05T21:48:34.351Z,2.10
2022-10-05T21:51:02.922Z,2.33
2022-10-05T21:53:32.974Z,2.42
2022-10-05T21:56:04.585Z,2.05
2022-10-05T21:58:33.137Z,2.25
2022-10-05T22:01:01.528Z,2.20
2022-10-05T22:03:30.046Z,2.40
2022-10-05T22:05:58.563Z,1.90
2022-10-05T22:08:29.406Z,2.40
2022-10-05T22:10:58.111Z,1.90
2022-10-05T22:13:28.495Z,1.92
2022-10-05T22:15:57.828Z,2.13
2022-10-05T22:18:27.128Z,2.30
2022-10-05T22:20:55.648Z,2.15
2022-10-05T22:23:23.971Z,2.42
2022-10-05T22:25:52.301Z,2.75
2022-10-05T22:28:20.638Z,3.05
2022-10-05T22:30:50.461Z,3.03
2022-10-05T22:33:18.764Z,3.60
2022-10-05T22:35:47.116Z,3.72
2022-10-05T22:38:15.421Z,4.30
2022-10-05T22:40:43.821Z,4.78
2022-10-05T22:43:13.472Z,4.35
2022-10-05T22:45:41.968Z,4.72
2022-10-05T22:48:11.881Z,4.90
2022-10-05T22:50:40.299Z,4.70
2022-10-05T22:53:08.632Z,4.50
2022-10-05T22:55:36.947Z,4.70
2022-10-05T22:58:05.300Z,5.03
2022-10-05T23:00:56.362Z,5.00
2022-10-05T23:03:23.606Z,5.50
2022-10-05T23:05:57.670Z,5.20
2022-10-05T23:08:26.628Z,5.20
2022-10-05T23:10:55.287Z,5.47
2022-10-05T23:13:23.677Z,5.28
2022-10-05T23:15:52.005Z,4.40
2022-10-05T23:18:20.314Z,4.18
2022-10-05T23:20:55.523Z,4.15
2022-10-05T23:23:24.267Z,3.72
2022-10-05T23:25:52.546Z,3.90
2022-10-05T23:28:21.011Z,4.07
2022-10-05T23:30:49.386Z,3.38
2022-10-05T23:33:17.932Z,3.50
2022-10-05T23:35:46.203Z,2.97
2022-10-05T23:38:15.924Z,3.00
2022-10-05T23:40:47.548Z,3.08
2022-10-05T23:43:16.071Z,2.70
2022-10-05T23:45:45.768Z,2.65
2022-10-05T23:48:14.491Z,2.80
2022-10-05T23:50:44.109Z,2.70
2022-10-05T23:53:12.605Z,2.85
2022-10-05T23:55:42.287Z,2.78
2022-10-05T23:58:10.913Z,2.55
